Archival Weather

Aeroparque Jorge Newbery

Buenos Aires, Argentina (SABE)

Report from: Sunday, March 19, 2023 1:00 AM -03
Current time: Sunday, July 14, 2024 7:22 AM -03

Current weather – Weather history – Daily summaries
Weather forecast

Temperature25.0°C (77.0°F)
Dew point22.0°C (71.6°F)
Winds 9 kts (4.6 m/s, 10.4 mph) East (80°)
Visibility6.2 mi. (10 km)
Clouds Few clouds 1,600 ft. (488 m)
Ceiling: Broken clouds 4,600 ft. (1,402 m)
Altimeter29.91 in.Hg (1013 mB)
Relative humidity83 %
Density altitude1,522 ft. (464 m)
Remarks No significant changes expected in the next two hours
Flight conditions Visual Meteorological Conditions
Raw dataSABE 190400Z 08009KT 9999 FEW016 BKN046 25/22 Q1013 NOSIG RMK PP000
An error has occurred. This application may no longer respond until reloaded. Reload 🗙